createdAt,value
2019-01-20T00:00:19.917Z,-2.00
2019-01-20T00:02:48.322Z,-1.90
2019-01-20T00:05:17.577Z,-2.00
2019-01-20T00:07:45.987Z,-2.00
2019-01-20T00:10:14.554Z,-2.00
2019-01-20T00:12:42.981Z,-2.00
2019-01-20T00:15:19.590Z,-2.00
2019-01-20T00:17:48.026Z,-2.10
2019-01-20T00:20:16.480Z,-2.10
2019-01-20T00:22:45.010Z,-2.10
2019-01-20T00:25:14.158Z,-2.10
2019-01-20T00:27:42.557Z,-2.20
2019-01-20T00:30:13.870Z,-2.20
2019-01-20T00:32:42.349Z,-2.20
2019-01-20T00:35:11.051Z,-2.20
2019-01-20T00:37:39.614Z,-2.10
2019-01-20T00:40:11.588Z,-2.10
2019-01-20T00:42:39.982Z,-2.10
2019-01-20T00:45:14.426Z,-2.10
2019-01-20T00:47:42.852Z,-2.10
2019-01-20T00:50:13.197Z,-2.20
2019-01-20T00:52:41.766Z,-2.20
2019-01-20T00:55:12.938Z,-2.20
2019-01-20T00:57:41.914Z,-2.20
2019-01-20T01:00:16.393Z,-2.20
2019-01-20T01:02:44.861Z,-2.30
2019-01-20T01:05:14.401Z,-2.30
2019-01-20T01:07:43.273Z,-2.30
2019-01-20T01:10:11.917Z,-2.30
2019-01-20T01:12:40.866Z,-2.30
2019-01-20T01:15:11.341Z,-2.40
2019-01-20T01:17:39.745Z,-2.40
2019-01-20T01:20:14.518Z,-2.40
2019-01-20T01:22:43.189Z,-2.50
2019-01-20T01:25:13.726Z,-2.50
2019-01-20T01:27:42.294Z,-2.50
2019-01-20T01:30:16.845Z,-2.60
2019-01-20T01:32:45.246Z,-2.60
2019-01-20T01:35:14.017Z,-2.60
2019-01-20T01:37:42.449Z,-2.60
2019-01-20T01:40:13.557Z,-2.60
2019-01-20T01:42:42.408Z,-2.70
2019-01-20T01:45:13.517Z,-2.70
2019-01-20T01:47:41.982Z,-2.70
2019-01-20T01:50:11.269Z,-2.70
2019-01-20T01:52:39.677Z,-2.80
2019-01-20T01:55:09.418Z,-2.80
2019-01-20T01:57:37.857Z,-2.80
2019-01-20T02:00:09.815Z,-2.80
2019-01-20T02:02:38.212Z,-2.90
2019-01-20T02:05:09.107Z,-2.90
2019-01-20T02:07:37.661Z,-2.90
2019-01-20T02:10:09.175Z,-2.90
2019-01-20T02:12:39.151Z,-2.90
2019-01-20T02:15:09.704Z,-2.90
2019-01-20T02:17:38.113Z,-2.90
2019-01-20T02:20:11.112Z,-2.90
2019-01-20T02:22:39.861Z,-2.90
2019-01-20T02:25:08.347Z,-3.00
2019-01-20T02:27:36.810Z,-2.90
2019-01-20T02:30:14.129Z,-3.00
2019-01-20T02:32:42.562Z,-2.90
2019-01-20T02:35:11.025Z,-3.00
2019-01-20T02:37:39.428Z,-3.00
2019-01-20T02:40:10.890Z,-3.00
2019-01-20T02:42:39.299Z,-3.00
2019-01-20T02:45:10.437Z,-3.00
2019-01-20T02:47:38.886Z,-3.00
2019-01-20T02:50:13.363Z,-3.00
2019-01-20T02:52:41.828Z,-3.00
2019-01-20T02:55:10.513Z,-2.90
2019-01-20T02:57:38.931Z,-2.90
2019-01-20T03:00:16.138Z,-2.90
2019-01-20T03:02:44.548Z,-2.90
2019-01-20T03:05:13.585Z,-2.90
2019-01-20T03:07:42.489Z,-2.90
2019-01-20T03:10:12.634Z,-2.90
2019-01-20T03:12:41.040Z,-2.90
2019-01-20T03:15:11.519Z,-2.90
2019-01-20T03:17:39.974Z,-3.00
2019-01-20T03:20:11.615Z,-3.00
2019-01-20T03:22:40.018Z,-2.90
2019-01-20T03:25:11.238Z,-3.00
2019-01-20T03:27:39.730Z,-3.00
2019-01-20T03:30:11.257Z,-3.00
2019-01-20T03:32:39.799Z,-3.00
2019-01-20T03:35:09.345Z,-3.00
2019-01-20T03:37:37.760Z,-3.10
2019-01-20T03:40:09.274Z,-3.10
2019-01-20T03:42:37.764Z,-3.10
2019-01-20T03:45:09.639Z,-3.10
2019-01-20T03:47:38.034Z,-3.10
2019-01-20T03:50:09.899Z,-3.20
2019-01-20T03:52:38.693Z,-3.30
2019-01-20T03:55:13.085Z,-3.20
2019-01-20T03:57:41.486Z,-3.20
2019-01-20T04:00:15.390Z,-3.20
2019-01-20T04:02:44.622Z,-3.20
2019-01-20T04:05:13.203Z,-3.30
2019-01-20T04:07:41.970Z,-3.30
2019-01-20T04:10:15.369Z,-3.30
2019-01-20T04:12:44.034Z,-3.30
2019-01-20T04:15:14.598Z,-3.30
2019-01-20T04:17:43.258Z,-3.20
2019-01-20T04:20:13.905Z,-3.10
2019-01-20T04:22:42.442Z,-3.20
2019-01-20T04:25:13.925Z,-3.20
2019-01-20T04:27:42.321Z,-3.20
2019-01-20T04:30:13.207Z,-3.30
2019-01-20T04:32:41.819Z,-3.30
2019-01-20T04:35:11.464Z,-3.40
2019-01-20T04:37:40.194Z,-3.40
2019-01-20T04:40:12.137Z,-3.50
2019-01-20T04:42:40.547Z,-3.50
2019-01-20T04:45:11.853Z,-3.50
2019-01-20T04:47:40.250Z,-3.50
2019-01-20T04:50:11.598Z,-3.50
2019-01-20T04:52:40.739Z,-3.60
2019-01-20T04:55:11.359Z,-3.60
2019-01-20T04:57:40.134Z,-3.60
2019-01-20T05:00:14.582Z,-3.60
2019-01-20T05:02:42.986Z,-3.60
2019-01-20T05:05:11.692Z,-3.60
2019-01-20T05:07:40.146Z,-3.60
2019-01-20T05:10:11.649Z,-3.60
2019-01-20T05:12:40.049Z,-3.60
2019-01-20T05:15:11.614Z,-3.70
2019-01-20T05:17:40.098Z,-3.70
2019-01-20T05:20:10.259Z,-3.70
2019-01-20T05:22:38.697Z,-3.70
2019-01-20T05:25:10.199Z,-3.70
2019-01-20T05:27:39.608Z,-3.70
2019-01-20T05:30:13.620Z,-3.70
2019-01-20T05:32:42.071Z,-3.70
2019-01-20T05:35:11.429Z,-3.70
2019-01-20T05:37:39.893Z,-3.80
2019-01-20T05:40:21.496Z,-3.80
2019-01-20T05:42:50.074Z,-3.80
2019-01-20T05:45:20.816Z,-3.80
2019-01-20T05:47:49.258Z,-3.80
2019-01-20T05:50:17.742Z,-3.80
2019-01-20T05:52:46.161Z,-3.80
2019-01-20T05:55:15.532Z,-3.80
2019-01-20T05:57:44.112Z,-3.80
2019-01-20T06:00:18.383Z,-3.80
2019-01-20T06:02:46.902Z,-3.80
2019-01-20T06:05:15.433Z,-3.70
2019-01-20T06:07:43.847Z,-3.70
2019-01-20T06:10:14.069Z,-3.70
2019-01-20T06:12:42.482Z,-3.80
2019-01-20T06:15:13.597Z,-3.80
2019-01-20T06:17:42.053Z,-3.80
2019-01-20T06:20:10.630Z,-3.90
2019-01-20T06:22:39.034Z,-3.90
2019-01-20T06:25:08.942Z,-3.90
2019-01-20T06:27:37.699Z,-3.90
2019-01-20T06:30:12.007Z,-3.90
2019-01-20T06:32:40.578Z,-3.90
2019-01-20T06:35:08.957Z,-3.90
2019-01-20T06:37:37.447Z,-3.90
2019-01-20T06:40:07.446Z,-3.90
2019-01-20T06:42:35.854Z,-3.90
2019-01-20T06:45:09.104Z,-4.00
2019-01-20T06:47:37.689Z,-4.00
2019-01-20T06:50:11.706Z,-4.00
2019-01-20T06:52:40.154Z,-4.00
2019-01-20T06:55:10.260Z,-4.00
2019-01-20T06:57:38.733Z,-4.00
2019-01-20T07:00:19.526Z,-4.10
2019-01-20T07:02:48.358Z,-4.00
2019-01-20T07:05:17.150Z,-4.00
2019-01-20T07:07:45.757Z,-4.00
2019-01-20T07:10:16.143Z,-4.00
2019-01-20T07:12:44.866Z,-4.00
2019-01-20T07:15:21.171Z,-4.00
2019-01-20T07:17:49.710Z,-4.00
2019-01-20T07:20:18.479Z,-4.00
2019-01-20T07:22:46.919Z,-3.90
2019-01-20T07:25:15.521Z,-3.90
2019-01-20T07:27:43.925Z,-3.80
2019-01-20T07:30:15.483Z,-3.80
2019-01-20T07:32:43.883Z,-3.80
2019-01-20T07:35:12.871Z,-3.80
2019-01-20T07:37:41.556Z,-3.90
2019-01-20T07:40:13.039Z,-3.80
2019-01-20T07:42:41.503Z,-3.80
2019-01-20T07:45:11.975Z,-3.70
2019-01-20T07:47:40.382Z,-3.70
2019-01-20T07:50:17.279Z,-3.70
2019-01-20T07:52:45.681Z,-3.70
2019-01-20T07:55:14.276Z,-3.70
2019-01-20T07:57:43.017Z,-3.70
2019-01-20T08:00:14.454Z,-3.60
2019-01-20T08:02:42.866Z,-3.60
2019-01-20T08:05:11.931Z,-3.50
2019-01-20T08:07:40.329Z,-3.40
2019-01-20T08:10:20.279Z,-3.40
2019-01-20T08:12:48.862Z,-3.30
2019-01-20T08:15:18.087Z,-3.20
2019-01-20T08:17:46.677Z,-3.10
2019-01-20T08:20:17.558Z,-3.10
2019-01-20T08:22:46.060Z,-3.00
2019-01-20T08:25:15.874Z,-2.90
2019-01-20T08:27:44.338Z,-2.80
2019-01-20T08:30:23.548Z,-2.80
2019-01-20T08:32:51.952Z,-2.70
2019-01-20T08:35:20.697Z,-2.70
2019-01-20T08:37:49.141Z,-2.60
2019-01-20T08:40:22.849Z,-2.60
2019-01-20T08:42:51.267Z,-2.50
2019-01-20T08:45:34.046Z,-2.50
2019-01-20T08:48:05.561Z,-2.40
2019-01-20T08:50:33.958Z,-2.40
2019-01-20T08:53:03.374Z,-2.30
2019-01-20T08:55:31.782Z,-2.30
2019-01-20T08:58:00.176Z,-2.30
2019-01-20T09:00:28.620Z,-2.20
2019-01-20T09:02:57.025Z,-2.10
2019-01-20T09:05:25.464Z,-2.10
2019-01-20T09:07:53.883Z,-2.00
2019-01-20T09:10:24.541Z,-2.00
2019-01-20T09:12:53.253Z,-2.00
2019-01-20T09:15:21.653Z,-1.90
2019-01-20T09:17:50.058Z,-1.90
2019-01-20T09:20:18.497Z,-1.90
2019-01-20T09:22:46.901Z,-1.90
2019-01-20T09:25:15.742Z,-1.90
2019-01-20T09:27:44.175Z,-1.80
2019-01-20T09:30:18.520Z,-1.70
2019-01-20T09:32:47.080Z,-1.60
2019-01-20T09:35:15.788Z,-1.50
2019-01-20T09:37:44.230Z,-1.40
2019-01-20T09:40:17.801Z,-1.30
2019-01-20T09:42:47.112Z,-1.20
2019-01-20T09:45:27.018Z,-1.00
2019-01-20T09:47:56.473Z,-0.90
2019-01-20T09:50:24.872Z,-0.80
2019-01-20T09:52:53.849Z,-0.70
2019-01-20T09:55:22.509Z,-0.50
2019-01-20T09:57:50.916Z,-0.40
2019-01-20T10:00:25.105Z,-0.30
2019-01-20T10:02:53.777Z,-0.20
2019-01-20T10:05:22.209Z,-0.10
2019-01-20T10:07:50.749Z,0.00
2019-01-20T10:10:19.248Z,0.10
2019-01-20T10:12:47.653Z,0.20
2019-01-20T10:15:17.300Z,0.40
2019-01-20T10:17:46.014Z,0.50
2019-01-20T10:20:23.150Z,0.60
2019-01-20T10:22:51.580Z,0.70
2019-01-20T10:25:20.154Z,0.80
2019-01-20T10:27:48.557Z,0.90
2019-01-20T10:30:23.320Z,1.10
2019-01-20T10:32:51.718Z,1.20
2019-01-20T10:35:21.757Z,1.40
2019-01-20T10:37:50.670Z,1.40
2019-01-20T10:40:19.070Z,1.50
2019-01-20T10:42:47.472Z,1.60
2019-01-20T10:45:15.976Z,1.70
2019-01-20T10:47:44.373Z,1.80
2019-01-20T10:50:15.617Z,1.90
2019-01-20T10:52:44.051Z,2.00
2019-01-20T10:55:12.497Z,2.10
2019-01-20T10:57:41.030Z,2.10
2019-01-20T11:00:21.461Z,2.10
2019-01-20T11:02:49.862Z,2.10
2019-01-20T11:05:24.846Z,2.10
2019-01-20T11:07:48.609Z,2.00
2019-01-20T11:10:17.192Z,2.10
2019-01-20T11:12:45.583Z,2.10
2019-01-20T11:15:15.965Z,2.20
2019-01-20T11:17:44.445Z,2.40
2019-01-20T11:20:17.919Z,2.50
2019-01-20T11:22:46.621Z,2.60
2019-01-20T11:25:18.229Z,2.80
2019-01-20T11:27:46.624Z,2.90
2019-01-20T11:30:15.572Z,3.00
2019-01-20T11:32:44.043Z,3.20
2019-01-20T11:35:19.618Z,3.40
2019-01-20T11:37:48.446Z,3.60
2019-01-20T11:40:16.972Z,3.80
2019-01-20T11:42:45.437Z,3.90
2019-01-20T11:45:17.028Z,4.00
2019-01-20T11:47:45.624Z,3.60
2019-01-20T11:50:14.569Z,3.70
2019-01-20T11:52:42.972Z,3.80
2019-01-20T11:55:23.485Z,4.00
2019-01-20T11:57:51.889Z,4.00
2019-01-20T12:00:22.738Z,4.20
2019-01-20T12:02:51.539Z,4.30
2019-01-20T12:05:20.772Z,4.40
2019-01-20T12:07:49.411Z,4.50
2019-01-20T12:10:17.992Z,4.60
2019-01-20T12:13:00.006Z,4.70
2019-01-20T12:15:28.440Z,4.50
2019-01-20T12:17:56.842Z,4.20
2019-01-20T12:20:25.338Z,4.10
2019-01-20T12:22:54.212Z,4.20
2019-01-20T12:25:22.685Z,4.20
2019-01-20T12:27:51.142Z,4.30
2019-01-20T12:30:28.085Z,4.30
2019-01-20T12:32:56.710Z,4.50
2019-01-20T12:35:26.579Z,4.80
2019-01-20T12:37:55.394Z,5.00
2019-01-20T12:40:30.259Z,4.80
2019-01-20T12:42:59.050Z,5.00
2019-01-20T12:45:27.820Z,5.20
2019-01-20T12:47:56.357Z,5.50
2019-01-20T12:50:25.095Z,5.80
2019-01-20T12:52:54.051Z,6.10
2019-01-20T12:55:22.942Z,6.30
2019-01-20T12:57:51.570Z,6.30
2019-01-20T13:00:20.710Z,6.20
2019-01-20T13:02:49.729Z,6.30
2019-01-20T13:05:18.190Z,6.40
2019-01-20T13:07:46.634Z,6.70
2019-01-20T13:10:19.302Z,6.90
2019-01-20T13:12:48.135Z,7.10
2019-01-20T13:15:21.994Z,7.30
2019-01-20T13:17:50.610Z,7.40
2019-01-20T13:20:21.428Z,7.40
2019-01-20T13:22:49.817Z,7.40
2019-01-20T13:25:20.621Z,7.40
2019-01-20T13:27:49.056Z,7.20
2019-01-20T13:30:19.897Z,6.80
2019-01-20T13:32:48.374Z,6.60
2019-01-20T13:35:18.148Z,6.40
2019-01-20T13:37:49.355Z,6.20
2019-01-20T13:40:30.796Z,5.90
2019-01-20T13:42:59.193Z,5.90
2019-01-20T13:45:27.592Z,5.90
2019-01-20T13:47:56.046Z,5.80
2019-01-20T13:50:24.434Z,5.80
2019-01-20T13:52:52.897Z,5.70
2019-01-20T13:55:21.389Z,5.50
2019-01-20T13:57:49.790Z,5.30
2019-01-20T14:00:25.564Z,5.00
2019-01-20T14:02:54.010Z,4.90
2019-01-20T14:05:22.405Z,4.90
2019-01-20T14:07:51.341Z,4.80
2019-01-20T14:10:21.613Z,4.80
2019-01-20T14:12:50.014Z,5.00
2019-01-20T14:15:18.545Z,5.10
2019-01-20T14:17:46.945Z,5.00
2019-01-20T14:20:23.486Z,5.00
2019-01-20T14:22:51.897Z,5.20
2019-01-20T14:25:23.134Z,5.40
2019-01-20T14:27:51.714Z,5.40
2019-01-20T14:30:28.398Z,5.50
2019-01-20T14:32:56.839Z,5.40
2019-01-20T14:35:25.240Z,5.10
2019-01-20T14:37:53.665Z,4.80
2019-01-20T14:40:22.358Z,4.60
2019-01-20T14:42:51.953Z,4.50
2019-01-20T14:45:20.634Z,4.60
2019-01-20T14:47:49.352Z,4.60
2019-01-20T14:50:28.300Z,4.60
2019-01-20T14:52:57.113Z,4.60
2019-01-20T14:55:25.860Z,5.00
2019-01-20T14:57:54.699Z,5.30
2019-01-20T15:00:31.741Z,5.40
2019-01-20T15:03:00.241Z,5.50
2019-01-20T15:05:28.700Z,5.30
2019-01-20T15:07:57.290Z,5.10
2019-01-20T15:10:25.694Z,5.00
2019-01-20T15:12:54.103Z,4.70
2019-01-20T15:15:34.576Z,4.50
2019-01-20T15:18:03.371Z,4.40
2019-01-20T15:20:31.766Z,4.30
2019-01-20T15:23:00.262Z,4.30
2019-01-20T15:25:28.725Z,4.10
2019-01-20T15:27:57.129Z,3.90
2019-01-20T15:30:30.630Z,3.80
2019-01-20T15:33:00.073Z,3.80
2019-01-20T15:35:28.475Z,3.70
2019-01-20T15:37:56.985Z,3.90
2019-01-20T15:40:25.573Z,3.90
2019-01-20T15:42:54.211Z,3.80
2019-01-20T15:45:23.989Z,3.60
2019-01-20T15:47:52.785Z,3.40
2019-01-20T15:50:27.080Z,3.10
2019-01-20T15:52:55.657Z,2.90
2019-01-20T15:55:24.223Z,2.70
2019-01-20T15:57:53.044Z,2.60
2019-01-20T16:00:23.715Z,2.40
2019-01-20T16:02:52.181Z,2.30
2019-01-20T16:05:21.516Z,2.10
2019-01-20T16:07:49.915Z,1.90
2019-01-20T16:10:18.570Z,1.80
2019-01-20T16:12:47.552Z,1.70
2019-01-20T16:15:24.977Z,1.60
2019-01-20T16:17:54.909Z,1.50
2019-01-20T16:20:23.954Z,1.40
2019-01-20T16:22:52.358Z,1.40
2019-01-20T16:25:26.316Z,1.30
2019-01-20T16:27:54.769Z,1.20
2019-01-20T16:30:29.062Z,1.20
2019-01-20T16:32:57.522Z,1.10
2019-01-20T16:35:26.574Z,1.00
2019-01-20T16:37:56.018Z,1.00
2019-01-20T16:40:25.804Z,0.90
2019-01-20T16:42:54.248Z,0.80
2019-01-20T16:45:32.007Z,0.80
2019-01-20T16:47:56.056Z,0.70
2019-01-20T16:50:25.402Z,0.60
2019-01-20T16:52:54.786Z,0.60
2019-01-20T16:55:23.639Z,0.50
2019-01-20T16:57:52.110Z,0.40
2019-01-20T17:00:23.155Z,0.40
2019-01-20T17:02:51.774Z,0.40
2019-01-20T17:05:20.360Z,0.30
2019-01-20T17:07:48.818Z,0.30
2019-01-20T17:10:26.022Z,0.20
2019-01-20T17:12:54.606Z,0.20
2019-01-20T17:15:25.660Z,0.20
2019-01-20T17:17:54.107Z,0.10
2019-01-20T17:20:22.932Z,0.10
2019-01-20T17:22:52.010Z,0.00
2019-01-20T17:25:20.677Z,0.00
2019-01-20T17:27:49.118Z,0.00
2019-01-20T17:30:32.929Z,0.00
2019-01-20T17:33:01.571Z,-0.10
2019-01-20T17:35:30.086Z,-0.10
2019-01-20T17:37:58.502Z,-0.10
2019-01-20T17:40:28.170Z,-0.10
2019-01-20T17:42:58.427Z,-0.10
2019-01-20T17:45:35.639Z,-0.10
2019-01-20T17:48:04.109Z,-0.10
2019-01-20T17:50:35.228Z,-0.10
2019-01-20T17:53:04.617Z,-0.10
2019-01-20T17:55:33.021Z,-0.10
2019-01-20T17:58:01.525Z,-0.10
2019-01-20T18:00:36.698Z,-0.10
2019-01-20T18:03:06.381Z,-0.20
2019-01-20T18:05:35.334Z,-0.30
2019-01-20T18:08:04.019Z,-0.40
2019-01-20T18:10:32.455Z,-0.40
2019-01-20T18:13:00.942Z,-0.50
2019-01-20T18:15:29.354Z,-0.60
2019-01-20T18:17:58.810Z,-0.60
2019-01-20T18:20:32.597Z,-0.70
2019-01-20T18:23:01.063Z,-0.70
2019-01-20T18:25:29.679Z,-0.80
2019-01-20T18:27:58.152Z,-0.80
2019-01-20T18:30:29.164Z,-0.80
2019-01-20T18:32:57.963Z,-0.80
2019-01-20T18:35:27.799Z,-0.80
2019-01-20T18:37:56.389Z,-0.80
2019-01-20T18:40:25.861Z,-0.80
2019-01-20T18:42:54.534Z,-0.80
2019-01-20T18:45:26.037Z,-0.90
2019-01-20T18:47:54.522Z,-0.80
2019-01-20T18:50:28.430Z,-0.90
2019-01-20T18:52:56.902Z,-0.90
2019-01-20T18:55:25.538Z,-0.90
2019-01-20T18:57:53.939Z,-0.90
2019-01-20T19:00:25.160Z,-1.00
2019-01-20T19:02:54.018Z,-1.00
2019-01-20T19:05:22.617Z,-1.00
2019-01-20T19:07:55.357Z,-1.00
2019-01-20T19:10:22.624Z,-1.10
2019-01-20T19:12:51.312Z,-1.10
2019-01-20T19:15:21.468Z,-1.00
2019-01-20T19:17:49.905Z,-1.00
2019-01-20T19:20:22.932Z,-1.10
2019-01-20T19:22:53.519Z,-1.10
2019-01-20T19:25:22.022Z,-1.10
2019-01-20T19:27:50.448Z,-1.20
2019-01-20T19:30:24.494Z,-1.30
2019-01-20T19:32:53.298Z,-1.30
2019-01-20T19:35:21.777Z,-1.30
2019-01-20T19:37:50.193Z,-1.40
2019-01-20T19:40:18.634Z,-1.40
2019-01-20T19:42:47.103Z,-1.40
2019-01-20T19:45:17.751Z,-1.40
2019-01-20T19:47:46.202Z,-1.40
2019-01-20T19:50:16.338Z,-1.40
2019-01-20T19:52:44.923Z,-1.50
2019-01-20T19:55:16.436Z,-1.50
2019-01-20T19:57:44.930Z,-1.50
2019-01-20T20:00:18.732Z,-1.60
2019-01-20T20:02:47.203Z,-1.60
2019-01-20T20:05:17.446Z,-1.60
2019-01-20T20:07:46.592Z,-1.60
2019-01-20T20:10:17.661Z,-1.60
2019-01-20T20:12:46.140Z,-1.60
2019-01-20T20:15:16.866Z,-1.60
2019-01-20T20:17:45.357Z,-1.70
2019-01-20T20:20:16.330Z,-1.70
2019-01-20T20:22:46.926Z,-1.70
2019-01-20T20:25:17.389Z,-1.70
2019-01-20T20:27:45.870Z,-1.70
2019-01-20T20:30:20.181Z,-1.80
2019-01-20T20:32:48.661Z,-1.70
2019-01-20T20:35:17.141Z,-1.80
2019-01-20T20:37:45.575Z,-1.80
2019-01-20T20:40:16.416Z,-1.80
2019-01-20T20:42:45.296Z,-1.90
2019-01-20T20:45:16.803Z,-1.90
2019-01-20T20:47:45.494Z,-1.90
2019-01-20T20:50:15.690Z,-1.80
2019-01-20T20:52:46.219Z,-1.90
2019-01-20T20:55:14.695Z,-1.90
2019-01-20T20:57:43.127Z,-2.00
2019-01-20T21:00:14.442Z,-2.00
2019-01-20T21:02:42.869Z,-2.00
2019-01-20T21:05:11.280Z,-2.00
2019-01-20T21:07:39.737Z,-2.00
2019-01-20T21:10:11.735Z,-2.00
2019-01-20T21:12:40.135Z,-2.00
2019-01-20T21:15:11.617Z,-2.00
2019-01-20T21:17:40.086Z,-2.10
2019-01-20T21:20:11.808Z,-2.10
2019-01-20T21:22:40.266Z,-2.10
2019-01-20T21:25:13.183Z,-2.10
2019-01-20T21:27:41.761Z,-2.10
2019-01-20T21:30:22.030Z,-2.20
2019-01-20T21:32:50.438Z,-2.20
2019-01-20T21:35:18.912Z,-2.20
2019-01-20T21:37:47.531Z,-2.20
2019-01-20T21:40:17.784Z,-2.20
2019-01-20T21:42:46.259Z,-2.20
2019-01-20T21:45:16.547Z,-2.20
2019-01-20T21:47:45.189Z,-2.30
2019-01-20T21:50:21.972Z,-2.30
2019-01-20T21:52:50.437Z,-2.30
2019-01-20T21:55:19.013Z,-2.30
2019-01-20T21:57:47.635Z,-2.30
2019-01-20T22:00:21.689Z,-2.30
2019-01-20T22:02:50.171Z,-2.30
2019-01-20T22:05:18.605Z,-2.30
2019-01-20T22:07:47.184Z,-2.40
2019-01-20T22:10:18.133Z,-2.50
2019-01-20T22:12:46.781Z,-2.50
2019-01-20T22:15:15.727Z,-2.50
2019-01-20T22:17:44.912Z,-2.60
2019-01-20T22:20:18.007Z,-2.60
2019-01-20T22:22:46.589Z,-2.70
2019-01-20T22:25:15.365Z,-2.60
2019-01-20T22:27:43.937Z,-2.60
2019-01-20T22:30:17.975Z,-2.70
2019-01-20T22:32:46.385Z,-2.60
2019-01-20T22:35:14.872Z,-2.70
2019-01-20T22:37:43.335Z,-2.70
2019-01-20T22:40:18.749Z,-2.70
2019-01-20T22:42:47.146Z,-2.80
2019-01-20T22:45:17.844Z,-2.80
2019-01-20T22:47:46.242Z,-2.80
2019-01-20T22:50:14.727Z,-2.80
2019-01-20T22:52:43.197Z,-2.80
2019-01-20T22:55:14.285Z,-2.80
2019-01-20T22:57:43.330Z,-2.80
2019-01-20T23:00:48.325Z,-2.80
2019-01-20T23:03:16.909Z,-2.90
2019-01-20T23:05:45.649Z,-2.90
2019-01-20T23:08:14.200Z,-2.90
2019-01-20T23:10:42.659Z,-2.90
2019-01-20T23:13:11.126Z,-2.90
2019-01-20T23:15:39.793Z,-2.90
2019-01-20T23:18:08.202Z,-3.00
2019-01-20T23:20:36.616Z,-3.00
2019-01-20T23:23:05.092Z,-3.00
2019-01-20T23:25:33.507Z,-3.10
2019-01-20T23:28:01.917Z,-3.10
2019-01-20T23:30:30.595Z,-3.10
2019-01-20T23:32:59.001Z,-3.20
2019-01-20T23:35:27.417Z,-3.20
2019-01-20T23:37:55.959Z,-3.20
2019-01-20T23:40:24.369Z,-3.30
2019-01-20T23:42:52.777Z,-3.30
2019-01-20T23:45:21.234Z,-3.30
2019-01-20T23:47:49.659Z,-3.30
2019-01-20T23:50:18.702Z,-3.30
2019-01-20T23:52:47.150Z,-3.30
2019-01-20T23:55:15.694Z,-3.40
2019-01-20T23:57:44.105Z,-3.40
